This is the latest recevied weather packets stored in our database for station/object dl9mfl-6. If no packets are shown the sender has not sent any weather packets the latest 10 day(s).
| Time | Temp. | Humidity | Pressure | Rain* | Wind** | Luminosity | Snow |
|---|---|---|---|---|---|---|---|
| 1777743386 | 5° C | 80% | 1020.8 hPa | 0 mm | - | - | - |
| 1777743377 | 5° C | 81% | 1020.7 hPa | 0 mm | - | - | - |
| 1777743373 | 5° C | 81% | 1020.8 hPa | 0 mm | - | - | - |
| 1777743369 | 5° C | 81% | 1020.8 hPa | 0 mm | - | - | - |
| 1777743365 | 4.44° C | 81% | 1020.8 hPa | 0 mm | - | - | - |
| 1777743361 | 4.44° C | 82% | 1020.7 hPa | 0 mm | - | - | - |
| 1777743353 | 4.44° C | 82% | 1020.7 hPa | 0 mm | - | - | - |
| 1777743349 | 4.44° C | 82% | 1020.7 hPa | 0 mm | - | - | - |
| 1777743345 | 4.44° C | 83% | 1020.7 hPa | 0 mm | - | - | - |
| 1777743341 | 22.78° C | 40% | 1015 hPa | 0 mm | - | - | - |
| 1777743337 | 4.44° C | 83% | 1020.7 hPa | 0 mm | - | - | - |
| 1777743333 | 3.89° C | 83% | 1020.7 hPa | 0 mm | - | - | - |
| 1777743324 | 3.89° C | 83% | 1020.7 hPa | 0 mm | - | - | - |
| 1777743320 | 3.89° C | 83% | 1020.7 hPa | 0 mm | - | - | - |
| 1777743316 | 3.89° C | 83% | 1020.7 hPa | 0 mm | - | - | - |
| 1777743312 | 3.89° C | 83% | 1020.7 hPa | 0 mm | - | - | - |
| 1777743304 | 3.89° C | 83% | 1020.7 hPa | 0 mm | - | - | - |
| 1777743296 | 3.89° C | 84% | 1020.7 hPa | 0 mm | - | - | - |
| 1777743292 | 3.33° C | 84% | 1020.7 hPa | 0 mm | - | - | - |
| 1777743288 | 3.33° C | 84% | 1020.7 hPa | 0 mm | - | - | - |
| 1777743283 | 22.78° C | 39% | 1015 hPa | 0 mm | - | - | - |
| 1777743275 | 3.33° C | 84% | 1020.6 hPa | 0 mm | - | - | - |
| 1777743271 | 3.33° C | 85% | 1020.6 hPa | 0 mm | - | - | - |
| 1777743267 | 22.78° C | 40% | 1015 hPa | 0 mm | - | - | - |
| 1777743263 | 22.78° C | 40% | 1015 hPa | 0 mm | - | - | - |
* Rain latest hour (hover to see other rain measurements)
** Current wind speed in m/s (hover to see current wind gust speed)